Maryland METAR Reports


Distance/Direction noted is from Ellicott City, MD as the crow flies

KCBE - Cumberland - 118 miles WNW
Updated: Wed, 10/01/2014 8:14 PM
Clear
Clear
 Wind from calm
Wind: Calm
Temperature: 66°F
Dew Point: 59°F
Humidity: 78%
Barometer: 30.09 inHg
Clouds: Clear
Visibility: 10 miles
2014/10/02 00:14 KCBE 020014Z AUTO 00000KT 10SM CLR 19/15 A3009 RMK AO1
KHGR - Hagerstown - 57 miles NW
Updated: Wed, 10/01/2014 7:53 PM
Haze, Few clouds
Haze, Few clouds
 Wind from NE
Wind: NE 5 mph
Temperature: 64°F
Dew Point: 57°F
Humidity: 78%
Barometer: 30.05 inHg
Summary: Haze
Clouds: Few Clouds
Visibility: 6 miles
Cloud Details: Few Clouds 1900 ft
2014/10/01 23:53 KHGR 012353Z 05004KT 6SM HZ FEW019 18/14 A3005 RMK AO2 SLP184 T01830144 10206 20183 53007
 
KFDK - Frederick - 34 miles NW
Updated: Wed, 10/01/2014 7:59 PM
Clear
Clear
 Wind from calm
Wind: Calm
Temperature: 64°F
Dew Point: 63°F
Humidity: 94%
Barometer: 30.08 inHg
Clouds: Clear
Visibility: 7 miles
2014/10/01 23:59 KFDK 012359Z 00000KT 7SM SKC 18/17 A3008
KGAI - Gaithersburg - 26 miles SW
Updated: Wed, 10/01/2014 8:15 PM
Clear
Clear
 Wind from calm
Wind: Calm
Temperature: 61°F
Dew Point: 57°F
Humidity: 88%
Barometer: 30.09 inHg
Clouds: Clear
Visibility: 10 miles
2014/10/02 00:15 KGAI 020015Z 00000KT 10SM CLR 16/14 A3009 RMK AO1
 
KBWI - BWI Airport - 15 miles SE
Updated: Wed, 10/01/2014 7:54 PM
Partly Cloudy
Partly Cloudy
 Wind from NNW
Wind: NNW 3 mph
Temperature: 66°F
Dew Point: 59°F
Humidity: 78%
Barometer: 30.03 inHg
Clouds: Partly Cloudy
Visibility: 10 miles
Cloud Details: Few Clouds 3000 ft
Partly Cloudy 8500 ft
2014/10/01 23:54 KBWI 012354Z 34003KT 10SM FEW030 SCT085 19/15 A3003 RMK AO2 SLP168 T01940150 10233 20194 53009
KNAK - Annapolis - 32 miles SSE
Updated: Wed, 10/01/2014 7:54 PM
Clear
Clear
 Wind from calm
Wind: Calm
Temperature: 66°F
Dew Point: 63°F
Humidity: 88%
Barometer: 30.03 inHg
Clouds: Clear
Visibility: 10 miles
2014/10/01 23:54 KNAK 012354Z AUTO 00000KT 10SM CLR 19/17 A3003 RMK AO2 SLP169 T01940167 10228 20194 53007
 
KESN - Easton - 63 miles SE
Updated: Wed, 10/01/2014 7:50 PM
Partly Cloudy
Partly Cloudy
 Wind from calm
Wind: Calm
Temperature: 68°F
Dew Point: 63°F
Humidity: 83%
Barometer: 30.06 inHg
Clouds: Partly Cloudy
Visibility: 10 miles
Cloud Details: Partly Cloudy 12000 ft
2014/10/01 23:50 KESN 012350Z 00000KT 10SM SCT120 20/17 A3006
KSBY - Salisbury - 112 miles SE
Updated: Wed, 10/01/2014 7:54 PM
Clear
Clear
 Wind from calm
Wind: Calm
Temperature: 64°F
Dew Point: 57°F
Humidity: 78%
Barometer: 30.02 inHg
Clouds: Clear
Visibility: 10 miles
2014/10/01 23:54 KSBY 012354Z 00000KT 10SM CLR 18/14 A3002 RMK AO2 SLP169 T01780144 10250 20178 53009